WetterOnline ( https://www.wetteronline.at )

Wetter aktuell Thiessow

Aktuelles Wetter: Putbus/Rügen (41m)

6-stündlich | Neueste Meldungen
Ortszeit Temperatur Wetter
Di, 07.04. 14:00 13.7° C wolkenlos
Di, 07.04. 8:00 9.9° C wolkenlos
Di, 07.04. 2:00 10.2° C wolkenlos
Mo, 06.04. 20:00 15.8° C wolkenlos
Mo, 06.04. 14:00 15.0° C wolkenlos
Mo, 06.04. 8:00 7.0° C wolkenlos
Mo, 06.04. 2:00 7.7° C wolkenlos
So, 05.04. 20:00 7.9° C wolkenlos
Ortszeit Temperatur Wetter
Di, 07.04. 18:00 13.5° C leicht bewölkt
Di, 07.04. 17:50 13.5° C leicht bewölkt
Di, 07.04. 17:40 13.6° C leicht bewölkt
Di, 07.04. 17:30 13.7° C fast wolkenlos
Di, 07.04. 17:20 13.7° C fast wolkenlos
Di, 07.04. 17:10 13.9° C fast wolkenlos
Di, 07.04. 17:00 14.0° C fast wolkenlos
Di, 07.04. 16:30 13.7° C leicht bewölkt
Di, 07.04. 16:00 14.0° C fast wolkenlos
Di, 07.04. 15:30 14.0° C leicht bewölkt
Di, 07.04. 15:00 14.2° C wolkenlos
Ortszeit Relative Feuchte Sichtweite
Di, 07.04. 14:00 52% 45 km
Di, 07.04. 8:00 79% 14 km
Di, 07.04. 2:00 56% 40 km
Mo, 06.04. 20:00 41% 40 km
Mo, 06.04. 14:00 41% 30 km
Mo, 06.04. 8:00 63% 30 km
Mo, 06.04. 2:00 59% 35 km
So, 05.04. 20:00 66% 60 km
Ortszeit Relative Feuchte Sichtweite
Di, 07.04. 18:00 50% 55 km
Di, 07.04. 17:50 50% -
Di, 07.04. 17:40 50% -
Di, 07.04. 17:30 51% 50 km
Di, 07.04. 17:20 51% -
Di, 07.04. 17:10 51% -
Di, 07.04. 17:00 49% 55 km
Di, 07.04. 16:30 47% 45 km
Di, 07.04. 16:00 48% >70 km
Di, 07.04. 15:30 49% 50 km
Di, 07.04. 15:00 50% 45 km
Ortszeit Niederschlagsmenge Niederschlagsart
Di, 07.04. 14:00 0.0 l/m2 in 6 Std. -
Di, 07.04. 8:00 0.0 l/m2 in 12 Std. -
Di, 07.04. 2:00 0.0 l/m2 in 6 Std. -
Mo, 06.04. 20:00 0.0 l/m2 in 12 Std. -
Mo, 06.04. 14:00 0.0 l/m2 in 6 Std. -
Mo, 06.04. 8:00 0.0 l/m2 in 12 Std. -
Mo, 06.04. 2:00 0.0 l/m2 in 6 Std. -
So, 05.04. 20:00 0.0 l/m2 in 12 Std. -
Ortszeit Niederschlagsmenge Niederschlagsart
Di, 07.04. 18:00 0.0 l/m2 in 1 Std. -
Di, 07.04. 17:50 keine Meldung -
Di, 07.04. 17:40 keine Meldung -
Di, 07.04. 17:30 0.0 l/m2 in 1 Std. -
Di, 07.04. 17:20 keine Meldung -
Di, 07.04. 17:10 keine Meldung -
Di, 07.04. 17:00 0.0 l/m2 in 1 Std. -
Di, 07.04. 16:30 0.0 l/m2 in 1 Std. -
Di, 07.04. 16:00 0.0 l/m2 in 1 Std. -
Di, 07.04. 15:30 0.0 l/m2 in 1 Std. -
Di, 07.04. 15:00 0.0 l/m2 in 1 Std. -
Ortszeit Stärke Spitze Richtung
km/h Bft. km/h Grad Sektor
Di, 07.04. 14:00 26 4 46 310° NW
Di, 07.04. 8:00 26 4 44 300° NW
Di, 07.04. 2:00 9 2 20 200° S
Mo, 06.04. 20:00 11 2 29 190° S
Mo, 06.04. 14:00 14 3 29 150° SO
Mo, 06.04. 8:00 11 2 25 140° SO
Mo, 06.04. 2:00 11 2 22 140° SO
So, 05.04. 20:00 11 2 37 120° SO
Ortszeit Stärke Spitze Richtung
km/h Bft. km/h Grad Sektor
Di, 07.04. 18:00 19 3 28 300° NW
Di, 07.04. 17:50 19 3 - 300° NW
Di, 07.04. 17:40 19 3 - 310° NW
Di, 07.04. 17:30 15 3 28 300° NW
Di, 07.04. 17:20 15 3 - 300° NW
Di, 07.04. 17:10 18 3 - 310° NW
Di, 07.04. 17:00 18 3 36 310° NW
Di, 07.04. 16:30 20 4 37 310° NW
Di, 07.04. 16:00 26 4 37 290° W
Di, 07.04. 15:30 24 4 35 290° W
Di, 07.04. 15:00 24 4 39 280° W
Ortszeit Untergrenze Bedeckung Gattung
total tief tief mittel hoch
Di, 07.04. 14:00 - 0/8 0/8 - - -
Di, 07.04. 8:00 - 0/8 0/8 - - -
Di, 07.04. 2:00 - 0/8 0/8 - - -
Mo, 06.04. 20:00 - 0/8 0/8 - - -
Mo, 06.04. 14:00 - 0/8 0/8 - - -
Mo, 06.04. 8:00 - 0/8 0/8 - - -
Mo, 06.04. 2:00 - 0/8 0/8 - - -
So, 05.04. 20:00 - 0/8 0/8 - - -
Ortszeit Bedeckungsgrad in Achtel und Wolkenuntergrenze
Di, 07.04. 18:00 2(9000m) 4(10500m)
Di, 07.04. 17:50 2(9000m) 4(10500m)
Di, 07.04. 17:40 4(10500m)
Di, 07.04. 17:30 1(10500m)
Di, 07.04. 17:20 1(10500m)
Di, 07.04. 17:10 1(10500m)
Di, 07.04. 17:00 2(10500m) 5(10500m)
Di, 07.04. 16:30 1(10500m) 4(10500m)
Di, 07.04. 16:00 2(12000m) 2(12000m)
Di, 07.04. 15:30 3(12000m)
Di, 07.04. 15:00 keine Wolken
Ortszeit Luftdruck NN (hPa) Tendenz (hPa in 3 Std.)
Di, 07.04. 14:00 1032 + 1,9
Di, 07.04. 8:00 1027 + 2,3
Di, 07.04. 2:00 1023 + 0,3
Mo, 06.04. 20:00 1022 - 0,3
Mo, 06.04. 14:00 1023 - 1,2
Mo, 06.04. 8:00 1025 - 0,9
Mo, 06.04. 2:00 1027 - 1,1
So, 05.04. 20:00 1028 - 1,3
Ortszeit Luftdruck NN (hPa) Tendenz (hPa in 3 Std.)
Di, 07.04. 18:00 1033 + 0,6
Di, 07.04. 17:50 1033 keine Meldung
Di, 07.04. 17:40 1033 keine Meldung
Di, 07.04. 17:30 1033 + 0,7
Di, 07.04. 17:20 1033 keine Meldung
Di, 07.04. 17:10 1033 keine Meldung
Di, 07.04. 17:00 1032 + 0,8
Di, 07.04. 16:30 1032 + 0,9
Di, 07.04. 16:00 1032 + 1,3
Di, 07.04. 15:30 1032 + 1,4
Di, 07.04. 15:00 1032 + 1,5
Ortszeit Schneehöhe (cm)
Di, 07.04. 14:00 0
Di, 07.04. 8:00 0
Di, 07.04. 2:00 0
Mo, 06.04. 20:00 0
Mo, 06.04. 14:00 0
Mo, 06.04. 8:00 0
Mo, 06.04. 2:00 0
So, 05.04. 20:00 0
Ortszeit Schneehöhe (cm)
Di, 07.04. 18:00 0
Di, 07.04. 17:50 0
Di, 07.04. 17:40 0
Di, 07.04. 17:30 0
Di, 07.04. 17:20 0
Di, 07.04. 17:10 0
Di, 07.04. 17:00 0
Di, 07.04. 16:30 0
Di, 07.04. 16:00 0
Di, 07.04. 15:30 0
Di, 07.04. 15:00 0
Link zu dieser Seite / Seite empfehlen

Das Wetter in ...